createdAt,value
2022-10-11T00:01:04.850Z,3.40
2022-10-11T00:03:33.240Z,3.00
2022-10-11T00:06:04.194Z,3.08
2022-10-11T00:08:33.851Z,2.85
2022-10-11T00:11:05.056Z,2.50
2022-10-11T00:13:34.173Z,2.65
2022-10-11T00:16:02.826Z,2.55
2022-10-11T00:18:34.280Z,2.65
2022-10-11T00:21:07.908Z,2.85
2022-10-11T00:23:36.805Z,2.70
2022-10-11T00:26:08.277Z,2.63
2022-10-11T00:28:38.682Z,2.80
2022-10-11T00:31:16.764Z,2.45
2022-10-11T00:33:45.189Z,2.80
2022-10-11T00:36:18.493Z,2.63
2022-10-11T00:38:47.435Z,2.97
2022-10-11T00:41:17.163Z,2.55
2022-10-11T00:43:46.151Z,2.97
2022-10-11T00:46:20.511Z,2.50
2022-10-11T00:51:35.727Z,2.47
2022-10-11T00:54:05.950Z,2.38
2022-10-11T00:56:41.203Z,2.22
2022-10-11T00:59:20.236Z,2.50
2022-10-11T01:01:48.757Z,2.28
2022-10-11T01:04:17.040Z,2.30
2022-10-11T01:06:46.484Z,2.10
2022-10-11T01:09:15.745Z,2.85
2022-10-11T01:11:45.949Z,2.30
2022-10-11T01:14:40.251Z,3.03
2022-10-11T01:17:17.332Z,3.22
2022-10-11T01:20:17.061Z,3.63
2022-10-11T01:23:09.691Z,3.30
2022-10-11T01:26:00.961Z,3.08
2022-10-11T01:29:04.560Z,3.08
2022-10-11T01:31:44.725Z,4.15
2022-10-11T01:34:22.640Z,3.50
2022-10-11T01:37:14.476Z,3.47
2022-10-11T01:39:49.891Z,3.47
2022-10-11T01:42:19.953Z,3.58
2022-10-11T01:44:51.096Z,3.22
2022-10-11T01:47:24.587Z,2.80
2022-10-11T01:50:01.840Z,3.40
2022-10-11T01:52:35.110Z,2.90
2022-10-11T01:55:21.686Z,2.80
2022-10-11T01:58:12.401Z,2.92
2022-10-11T02:00:59.085Z,2.25
2022-10-11T02:03:52.216Z,2.35
2022-10-11T02:07:01.835Z,2.30
2022-10-11T02:09:48.241Z,2.13
2022-10-11T02:12:42.150Z,1.98
2022-10-11T02:15:14.009Z,2.30
2022-10-11T02:17:50.454Z,2.55
2022-10-11T02:20:23.102Z,2.42
2022-10-11T02:22:57.325Z,2.47
2022-10-11T02:25:30.956Z,2.40
2022-10-11T02:28:03.055Z,2.72
2022-10-11T02:30:33.261Z,2.40
2022-10-11T02:33:06.511Z,2.00
2022-10-11T02:35:42.965Z,2.80
2022-10-11T02:38:28.049Z,2.22
2022-10-11T02:41:07.231Z,2.10
2022-10-11T02:43:42.595Z,2.00
2022-10-11T02:46:12.507Z,2.10
2022-10-11T02:48:41.041Z,2.13
2022-10-11T02:51:14.857Z,2.10
2022-10-11T02:53:43.275Z,2.08
2022-10-11T02:56:11.909Z,2.00
2022-10-11T02:58:40.233Z,2.20
2022-10-11T03:01:08.615Z,2.17
2022-10-11T03:03:37.035Z,2.22
2022-10-11T03:06:06.043Z,2.25
2022-10-11T03:08:34.798Z,2.15
2022-10-11T03:11:03.119Z,2.05
2022-10-11T03:13:31.510Z,2.00
2022-10-11T03:16:03.796Z,2.38
2022-10-11T03:18:32.784Z,2.10
2022-10-11T03:21:01.168Z,2.03
2022-10-11T03:23:29.524Z,2.17
2022-10-11T03:25:57.842Z,2.10
2022-10-11T03:28:26.177Z,2.03
2022-10-11T03:30:57.350Z,2.60
2022-10-11T03:33:25.680Z,2.20
2022-10-11T03:35:54.129Z,2.15
2022-10-11T03:38:23.606Z,2.15
2022-10-11T03:40:51.979Z,2.17
2022-10-11T03:43:20.265Z,2.10
2022-10-11T03:45:48.565Z,2.05
2022-10-11T03:48:16.921Z,2.60
2022-10-11T03:50:45.200Z,2.30
2022-10-11T03:53:13.660Z,2.88
2022-10-11T03:55:43.046Z,2.67
2022-10-11T03:58:11.595Z,3.28
2022-10-11T04:00:41.244Z,2.28
2022-10-11T04:03:09.486Z,2.65
2022-10-11T04:05:38.205Z,2.45
2022-10-11T04:08:11.184Z,2.80
2022-10-11T04:10:41.169Z,2.72
2022-10-11T04:13:12.106Z,2.90
2022-10-11T04:15:42.088Z,2.80
2022-10-11T04:18:11.154Z,3.08
2022-10-11T04:20:40.075Z,2.50
2022-10-11T04:23:08.400Z,2.80
2022-10-11T04:25:38.940Z,2.50
2022-10-11T04:28:09.057Z,2.53
2022-10-11T04:30:37.616Z,3.10
2022-10-11T04:33:06.398Z,3.35
2022-10-11T04:35:35.096Z,2.78
2022-10-11T04:38:04.170Z,3.15
2022-10-11T04:40:32.671Z,3.47
2022-10-11T04:43:01.329Z,3.20
2022-10-11T04:45:29.658Z,3.15
2022-10-11T04:47:57.922Z,3.83
2022-10-11T04:50:26.273Z,3.75
2022-10-11T04:52:54.631Z,3.05
2022-10-11T04:55:23.046Z,2.90
2022-10-11T04:57:51.437Z,3.40
2022-10-11T05:00:19.860Z,3.25
2022-10-11T05:02:48.079Z,3.70
2022-10-11T05:05:18.479Z,3.58
2022-10-11T05:07:46.810Z,3.45
2022-10-11T05:10:15.558Z,3.42
2022-10-11T05:12:43.871Z,3.30
2022-10-11T05:15:12.215Z,3.70
2022-10-11T05:17:40.555Z,3.50
2022-10-11T05:20:09.445Z,3.25
2022-10-11T05:22:37.790Z,3.38
2022-10-11T05:25:06.594Z,3.42
2022-10-11T05:27:34.823Z,3.13
2022-10-11T05:30:03.270Z,3.63
2022-10-11T05:32:31.726Z,3.95
2022-10-11T05:35:00.021Z,3.35
2022-10-11T05:37:28.310Z,3.08
2022-10-11T05:39:56.710Z,3.45
2022-10-11T05:42:25.032Z,3.42
2022-10-11T05:44:53.281Z,3.78
2022-10-11T05:47:21.511Z,3.47
2022-10-11T05:49:49.796Z,3.60
2022-10-11T05:52:22.480Z,3.80
2022-10-11T05:54:51.772Z,3.80
2022-10-11T05:57:20.080Z,3.67
2022-10-11T05:59:48.300Z,4.07
2022-10-11T06:02:16.556Z,3.85
2022-10-11T06:04:44.779Z,3.35
2022-10-11T06:07:13.495Z,3.70
2022-10-11T06:09:41.735Z,3.30
2022-10-11T06:12:12.447Z,3.63
2022-10-11T06:14:40.718Z,3.22
2022-10-11T06:17:09.257Z,3.63
2022-10-11T06:19:37.962Z,3.47
2022-10-11T06:22:06.244Z,3.35
2022-10-11T06:24:34.481Z,3.45
2022-10-11T06:27:02.750Z,4.05
2022-10-11T06:29:31.110Z,4.25
2022-10-11T06:31:59.509Z,3.85
2022-10-11T06:34:28.050Z,3.63
2022-10-11T06:36:56.319Z,3.55
2022-10-11T06:39:24.691Z,4.03
2022-10-11T06:41:53.169Z,3.65
2022-10-11T06:44:21.485Z,3.97
2022-10-11T06:46:49.855Z,4.07
2022-10-11T06:49:23.075Z,3.78
2022-10-11T06:51:52.547Z,3.70
2022-10-11T06:54:21.048Z,4.10
2022-10-11T06:56:49.524Z,3.90
2022-10-11T06:59:17.990Z,3.60
2022-10-11T07:01:46.325Z,3.80
2022-10-11T07:04:14.648Z,4.30
2022-10-11T07:06:43.702Z,4.25
2022-10-11T07:09:12.079Z,4.18
2022-10-11T07:11:40.465Z,3.85
2022-10-11T07:14:09.115Z,3.65
2022-10-11T07:16:38.134Z,3.75
2022-10-11T07:19:07.957Z,4.00
2022-10-11T07:21:36.789Z,3.78
2022-10-11T07:24:05.456Z,4.15
2022-10-11T07:26:38.520Z,4.35
2022-10-11T07:29:09.802Z,4.35
2022-10-11T07:31:40.882Z,3.80
2022-10-11T07:34:09.517Z,3.85
2022-10-11T07:36:38.333Z,4.15
2022-10-11T07:39:07.920Z,4.30
2022-10-11T07:41:39.735Z,3.67
2022-10-11T07:44:11.862Z,4.28
2022-10-11T07:46:40.217Z,4.32
2022-10-11T07:49:08.560Z,3.90
2022-10-11T07:51:37.178Z,3.83
2022-10-11T07:54:07.440Z,3.97
2022-10-11T07:56:36.231Z,4.53
2022-10-11T07:59:05.041Z,3.72
2022-10-11T08:01:34.452Z,3.72
2022-10-11T08:04:02.910Z,4.20
2022-10-11T08:06:33.520Z,4.30
2022-10-11T08:09:02.799Z,4.00
2022-10-11T08:11:36.830Z,4.35
2022-10-11T08:14:09.837Z,4.20
2022-10-11T08:16:42.000Z,3.95
2022-10-11T08:19:12.353Z,4.30
2022-10-11T08:21:40.721Z,4.07
2022-10-11T08:24:09.674Z,4.82
2022-10-11T08:26:38.001Z,4.28
2022-10-11T08:29:07.121Z,4.45
2022-10-11T08:31:36.247Z,4.55
2022-10-11T08:34:04.880Z,4.40
2022-10-11T08:36:33.837Z,4.38
2022-10-11T08:39:02.962Z,5.10
2022-10-11T08:42:08.385Z,4.70
2022-10-11T08:45:10.705Z,4.65
2022-10-11T08:47:46.479Z,4.43
2022-10-11T08:50:23.520Z,4.80
2022-10-11T08:53:09.039Z,4.70
2022-10-11T08:55:51.924Z,4.55
2022-10-11T08:58:53.151Z,4.97
2022-10-11T09:01:27.288Z,4.82
2022-10-11T09:03:56.849Z,4.90
2022-10-11T09:06:48.563Z,5.05
2022-10-11T09:09:44.097Z,4.93
2022-10-11T09:12:33.477Z,5.53
2022-10-11T09:15:39.748Z,5.05
2022-10-11T09:18:32.165Z,5.53
2022-10-11T09:21:21.990Z,5.32
2022-10-11T09:24:22.610Z,5.25
2022-10-11T09:26:50.800Z,5.63
2022-10-11T09:29:37.290Z,7.07
2022-10-11T09:32:17.010Z,7.10
2022-10-11T09:34:45.517Z,7.38
2022-10-11T09:37:55.087Z,6.45
2022-10-11T09:40:45.688Z,5.78
2022-10-11T09:43:14.648Z,6.15
2022-10-11T09:45:49.555Z,6.32
2022-10-11T09:48:27.599Z,5.90
2022-10-11T09:51:11.331Z,6.43
2022-10-11T09:54:03.715Z,6.25
2022-10-11T09:56:34.804Z,5.47
2022-10-11T09:59:21.355Z,6.00
2022-10-11T10:01:51.980Z,6.30
2022-10-11T10:04:20.879Z,6.63
2022-10-11T10:06:49.206Z,7.15
2022-10-11T10:09:31.119Z,6.28
2022-10-11T10:11:59.757Z,7.82
2022-10-11T10:14:32.158Z,7.18
2022-10-11T10:17:06.834Z,7.43
2022-10-11T10:19:55.454Z,7.03
2022-10-11T10:22:31.279Z,7.50
2022-10-11T10:25:03.165Z,7.50
2022-10-11T10:27:33.360Z,7.38
2022-10-11T10:30:04.030Z,7.70
2022-10-11T10:33:01.674Z,7.53
2022-10-11T10:35:31.821Z,7.70
2022-10-11T10:38:08.395Z,7.35
2022-10-11T10:40:51.284Z,8.02
2022-10-11T10:43:25.987Z,7.72
2022-10-11T10:46:19.750Z,7.22
2022-10-11T10:52:20.992Z,7.85
2022-10-11T10:55:24.362Z,8.43
2022-10-11T10:58:18.811Z,8.43
2022-10-11T11:00:50.110Z,9.32
2022-10-11T11:03:28.451Z,8.75
2022-10-11T11:06:09.010Z,8.90
2022-10-11T11:09:08.080Z,8.20
2022-10-11T11:11:54.165Z,8.85
2022-10-11T11:14:47.760Z,9.25
2022-10-11T11:17:44.239Z,9.25
2022-10-11T11:20:21.048Z,9.43
2022-10-11T11:23:24.397Z,8.35
2022-10-11T11:26:20.559Z,9.18
2022-10-11T11:29:01.359Z,9.52
2022-10-11T11:31:48.239Z,9.10
2022-10-11T11:34:22.961Z,9.55
2022-10-11T11:37:03.443Z,9.38
2022-10-11T11:39:34.000Z,9.07
2022-10-11T11:42:21.999Z,9.88
2022-10-11T11:44:53.370Z,9.73
2022-10-11T11:47:47.711Z,9.52
2022-10-11T11:50:24.199Z,9.70
2022-10-11T11:53:08.880Z,8.68
2022-10-11T11:55:56.988Z,9.75
2022-10-11T11:58:44.400Z,9.68
2022-10-11T12:01:59.141Z,9.60
2022-10-11T12:04:33.199Z,9.80
2022-10-11T12:07:26.369Z,10.00
2022-10-11T12:10:16.078Z,10.18
2022-10-11T12:12:44.566Z,9.10
2022-10-11T12:15:26.162Z,9.52
2022-10-11T12:17:57.193Z,9.40
2022-10-11T12:20:33.679Z,9.23
2022-10-11T12:23:20.240Z,9.45
2022-10-11T12:26:26.760Z,9.30
2022-10-11T12:29:20.741Z,9.73
2022-10-11T12:31:52.115Z,8.32
2022-10-11T12:34:42.641Z,8.90
2022-10-11T12:37:23.440Z,9.30
2022-10-11T12:39:59.767Z,9.90
2022-10-11T12:42:38.314Z,8.60
2022-10-11T12:45:15.602Z,8.63
2022-10-11T12:47:52.560Z,10.05
2022-10-11T12:50:41.443Z,9.52
2022-10-11T12:53:24.299Z,9.25
2022-10-11T12:56:08.943Z,9.25
2022-10-11T12:58:42.486Z,8.38
2022-10-11T13:01:20.656Z,9.52
2022-10-11T13:04:13.837Z,10.02
2022-10-11T13:06:55.816Z,9.63
2022-10-11T13:09:27.124Z,9.82
2022-10-11T13:12:02.629Z,10.38
2022-10-11T13:14:36.333Z,10.00
2022-10-11T13:17:05.014Z,10.23
2022-10-11T13:19:36.215Z,10.20
2022-10-11T13:22:16.400Z,10.23
2022-10-11T13:24:51.919Z,10.65
2022-10-11T13:27:24.243Z,11.65
2022-10-11T13:29:58.031Z,11.00
2022-10-11T13:32:28.885Z,12.52
2022-10-11T13:35:01.845Z,12.70
2022-10-11T13:37:32.276Z,12.25
2022-10-11T13:40:00.663Z,12.30
2022-10-11T13:42:33.796Z,12.32
2022-10-11T13:45:02.802Z,10.68
2022-10-11T13:47:33.153Z,12.40
2022-10-11T13:50:16.556Z,10.70
2022-10-11T13:53:10.776Z,11.85
2022-10-11T13:55:58.411Z,11.88
2022-10-11T13:58:33.490Z,12.52
2022-10-11T14:01:18.346Z,12.50
2022-10-11T14:06:19.438Z,11.75
2022-10-11T14:08:52.720Z,12.77
2022-10-11T14:11:38.482Z,13.07
2022-10-11T14:14:31.279Z,11.57
2022-10-11T14:17:21.030Z,12.88
2022-10-11T14:20:11.615Z,11.90
2022-10-11T14:22:40.403Z,12.43
2022-10-11T14:25:08.848Z,10.20
2022-10-11T14:27:38.646Z,13.02
2022-10-11T14:30:31.847Z,11.27
2022-10-11T14:33:02.590Z,11.85
2022-10-11T14:35:33.488Z,11.43
2022-10-11T14:38:02.001Z,12.50
2022-10-11T14:40:32.569Z,11.85
2022-10-11T14:43:00.935Z,11.98
2022-10-11T14:45:29.204Z,12.10
2022-10-11T14:47:57.641Z,11.40
2022-10-11T14:50:43.568Z,11.88
2022-10-11T14:53:13.532Z,12.23
2022-10-11T14:55:42.681Z,11.02
2022-10-11T14:58:14.967Z,11.23
2022-10-11T15:00:44.530Z,11.75
2022-10-11T15:03:13.204Z,11.48
2022-10-11T15:05:41.678Z,11.77
2022-10-11T15:08:10.150Z,10.90
2022-10-11T15:10:41.528Z,11.68
2022-10-11T15:13:13.040Z,11.40
2022-10-11T15:15:42.521Z,11.27
2022-10-11T15:18:17.655Z,12.43
2022-10-11T15:20:47.607Z,11.65
2022-10-11T15:23:16.108Z,11.45
2022-10-11T15:25:44.511Z,11.80
2022-10-11T15:28:38.539Z,11.40
2022-10-11T15:31:06.975Z,11.57
2022-10-11T15:33:35.283Z,10.77
2022-10-11T15:36:03.921Z,11.85
2022-10-11T15:38:32.715Z,11.27
2022-10-11T15:41:01.675Z,11.80
2022-10-11T15:43:29.961Z,11.48
2022-10-11T15:45:59.296Z,12.60
2022-10-11T15:48:28.398Z,10.73
2022-10-11T15:50:57.570Z,11.95
2022-10-11T15:53:32.080Z,12.05
2022-10-11T15:58:36.545Z,11.52
2022-10-11T16:01:10.676Z,11.05
2022-10-11T16:03:39.160Z,12.05
2022-10-11T16:06:08.491Z,11.93
2022-10-11T16:08:37.947Z,11.25
2022-10-11T16:11:08.005Z,13.23
2022-10-11T16:13:36.874Z,12.35
2022-10-11T16:16:10.246Z,12.57
2022-10-11T16:18:39.308Z,13.10
2022-10-11T16:21:16.385Z,11.77
2022-10-11T16:23:44.671Z,11.70
2022-10-11T16:26:15.065Z,12.25
2022-10-11T16:28:43.736Z,11.27
2022-10-11T16:31:17.641Z,12.98
2022-10-11T16:33:49.089Z,11.55
2022-10-11T16:36:41.414Z,12.40
2022-10-11T16:39:15.707Z,12.10
2022-10-11T16:41:45.097Z,11.25
2022-10-11T16:44:18.475Z,11.68
2022-10-11T16:46:50.797Z,12.90
2022-10-11T16:49:23.389Z,13.18
2022-10-11T16:51:56.507Z,12.82
2022-10-11T16:54:24.851Z,13.10
2022-10-11T16:56:56.235Z,11.70
2022-10-11T16:59:27.336Z,11.43
2022-10-11T17:01:56.190Z,11.98
2022-10-11T17:04:24.935Z,11.35
2022-10-11T17:06:55.279Z,12.40
2022-10-11T17:09:23.712Z,11.90
2022-10-11T17:11:56.650Z,11.15
2022-10-11T17:14:24.880Z,12.25
2022-10-11T17:16:56.236Z,12.60
2022-10-11T17:19:24.560Z,11.52
2022-10-11T17:21:53.040Z,12.25
2022-10-11T17:24:21.360Z,11.88
2022-10-11T17:26:49.831Z,12.48
2022-10-11T17:29:18.290Z,12.45
2022-10-11T17:31:49.173Z,11.77
2022-10-11T17:34:18.320Z,12.48
2022-10-11T17:36:46.555Z,12.20
2022-10-11T17:39:18.314Z,11.85
2022-10-11T17:41:47.445Z,11.57
2022-10-11T17:44:18.747Z,11.38
2022-10-11T17:46:50.100Z,10.50
2022-10-11T17:49:18.769Z,10.82
2022-10-11T17:51:47.037Z,11.23
2022-10-11T17:54:15.371Z,10.90
2022-10-11T17:56:43.789Z,11.80
2022-10-11T17:59:17.992Z,12.65
2022-10-11T18:01:46.322Z,11.63
2022-10-11T18:04:17.331Z,12.35
2022-10-11T18:06:47.483Z,11.13
2022-10-11T18:09:18.358Z,11.23
2022-10-11T18:11:47.784Z,12.52
2022-10-11T18:14:16.560Z,11.90
2022-10-11T18:16:46.670Z,11.80
2022-10-11T18:19:15.280Z,10.95
2022-10-11T18:21:43.650Z,12.05
2022-10-11T18:24:16.849Z,11.23
2022-10-11T18:26:46.451Z,11.85
2022-10-11T18:29:15.054Z,10.52
2022-10-11T18:31:43.371Z,11.45
2022-10-11T18:34:13.902Z,11.38
2022-10-11T18:36:44.715Z,12.57
2022-10-11T18:39:15.596Z,10.38
2022-10-11T18:41:45.301Z,10.95
2022-10-11T18:44:15.898Z,9.70
2022-10-11T18:46:45.140Z,9.30
2022-10-11T18:49:14.442Z,10.82
2022-10-11T18:51:43.444Z,11.40
2022-10-11T18:54:16.706Z,10.48
2022-10-11T18:56:48.445Z,9.95
2022-10-11T18:59:16.841Z,9.63
2022-10-11T19:01:46.085Z,8.95
2022-10-11T19:04:18.750Z,8.18
2022-10-11T19:06:49.960Z,9.80
2022-10-11T19:09:23.599Z,10.07
2022-10-11T19:11:54.162Z,9.70
2022-10-11T19:14:26.686Z,9.75
2022-10-11T19:16:55.965Z,9.30
2022-10-11T19:19:27.485Z,9.98
2022-10-11T19:21:58.214Z,8.77
2022-10-11T19:24:29.676Z,9.90
2022-10-11T19:27:02.604Z,9.25
2022-10-11T19:29:32.688Z,8.88
2022-10-11T19:32:04.529Z,9.45
2022-10-11T19:34:33.685Z,9.02
2022-10-11T19:37:02.165Z,8.68
2022-10-11T19:39:30.645Z,9.35
2022-10-11T19:41:58.965Z,9.00
2022-10-11T19:44:27.284Z,8.95
2022-10-11T19:46:55.598Z,8.10
2022-10-11T19:49:25.950Z,9.45
2022-10-11T19:51:56.238Z,8.65
2022-10-11T19:54:24.679Z,8.23
2022-10-11T19:56:53.440Z,9.15
2022-10-11T19:59:22.008Z,8.68
2022-10-11T20:01:53.132Z,9.80
2022-10-11T20:07:11.547Z,8.45
2022-10-11T20:09:39.920Z,9.43
2022-10-11T20:12:08.534Z,9.43
2022-10-11T20:14:37.004Z,8.98
2022-10-11T20:17:05.365Z,8.68
2022-10-11T20:19:33.800Z,9.02
2022-10-11T20:22:02.994Z,8.40
2022-10-11T20:24:34.078Z,9.88
2022-10-11T20:27:05.060Z,8.02
2022-10-11T20:29:33.316Z,7.97
2022-10-11T20:32:01.735Z,7.78
2022-10-11T20:34:30.160Z,8.65
2022-10-11T20:36:58.747Z,8.10
2022-10-11T20:39:27.149Z,8.43
2022-10-11T20:41:55.782Z,8.80
2022-10-11T20:44:24.105Z,8.20
2022-10-11T20:46:52.390Z,7.75
2022-10-11T20:49:20.837Z,7.32
2022-10-11T20:51:49.615Z,7.45
2022-10-11T20:54:18.325Z,6.82
2022-10-11T20:56:46.566Z,6.65
2022-10-11T20:59:14.910Z,7.25
2022-10-11T21:01:43.438Z,7.47
2022-10-11T21:04:18.985Z,7.75
2022-10-11T21:06:48.887Z,6.78
2022-10-11T21:09:17.666Z,7.50
2022-10-11T21:11:46.014Z,6.85
2022-10-11T21:14:14.540Z,7.10
2022-10-11T21:16:42.943Z,6.68
2022-10-11T21:19:15.105Z,7.32
2022-10-11T21:21:44.616Z,7.43
2022-10-11T21:24:14.725Z,6.72
2022-10-11T21:26:43.005Z,7.30
2022-10-11T21:29:11.410Z,7.60
2022-10-11T21:31:41.686Z,6.63
2022-10-11T21:34:10.085Z,5.68
2022-10-11T21:36:38.414Z,5.63
2022-10-11T21:39:06.725Z,5.32
2022-10-11T21:41:35.110Z,6.53
2022-10-11T21:44:03.555Z,6.32
2022-10-11T21:47:01.148Z,6.50
2022-10-11T21:49:21.694Z,6.63
2022-10-11T21:51:50.609Z,6.85
2022-10-11T21:54:19.430Z,6.47
2022-10-11T21:56:48.399Z,6.30
2022-10-11T21:59:16.875Z,5.88
2022-10-11T22:01:45.699Z,5.47
2022-10-11T22:04:14.484Z,6.47
2022-10-11T22:06:42.807Z,5.68
2022-10-11T22:09:11.269Z,5.60
2022-10-11T22:11:40.079Z,5.57
2022-10-11T22:14:08.510Z,6.32
2022-10-11T22:16:36.918Z,6.18
2022-10-11T22:19:05.355Z,6.25
2022-10-11T22:21:33.795Z,6.20
2022-10-11T22:24:02.160Z,6.70
2022-10-11T22:26:32.393Z,5.75
2022-10-11T22:29:01.364Z,6.70
2022-10-11T22:31:30.807Z,6.15
2022-10-11T22:34:01.233Z,5.75
2022-10-11T22:36:31.440Z,6.53
2022-10-11T22:38:59.905Z,6.40
2022-10-11T22:41:28.550Z,6.97
2022-10-11T22:43:56.891Z,5.78
2022-10-11T22:46:25.199Z,5.70
2022-10-11T22:48:53.529Z,5.72
2022-10-11T22:51:24.405Z,6.25
2022-10-11T22:53:52.728Z,5.78
2022-10-11T22:56:21.048Z,5.47
2022-10-11T22:58:49.365Z,5.55
2022-10-11T23:01:17.845Z,6.07
2022-10-11T23:03:50.195Z,5.57
2022-10-11T23:06:18.986Z,5.75
2022-10-11T23:08:47.279Z,5.68
2022-10-11T23:11:15.597Z,5.78
2022-10-11T23:13:43.871Z,6.43
2022-10-11T23:16:13.819Z,5.97
2022-10-11T23:18:43.119Z,6.15
2022-10-11T23:21:12.139Z,6.10
2022-10-11T23:23:40.672Z,5.88
2022-10-11T23:26:13.179Z,6.38
2022-10-11T23:28:43.172Z,6.28
2022-10-11T23:31:14.070Z,6.25
2022-10-11T23:33:42.432Z,5.70
2022-10-11T23:36:22.955Z,5.82
2022-10-11T23:38:56.397Z,4.85
2022-10-11T23:41:27.909Z,4.90
2022-10-11T23:43:56.399Z,5.40
2022-10-11T23:46:24.991Z,5.35
2022-10-11T23:48:53.253Z,6.57
2022-10-11T23:51:21.645Z,5.90
2022-10-11T23:53:50.030Z,4.97
2022-10-11T23:56:18.343Z,5.50
2022-10-11T23:58:46.919Z,5.20
